createdAt,value
2022-10-21T00:01:40.195Z,0
2022-10-21T00:03:41.546Z,0
2022-10-21T00:05:43.116Z,0
2022-10-21T00:07:44.492Z,0
2022-10-21T00:09:45.554Z,2.106
2022-10-21T00:11:47.246Z,2.948
2022-10-21T00:13:48.546Z,0.14
2022-10-21T00:15:50.033Z,0
2022-10-21T00:17:51.893Z,0
2022-10-21T00:19:53.767Z,0
2022-10-21T00:21:55.423Z,0
2022-10-21T00:23:56.576Z,2.106
2022-10-21T00:25:57.907Z,4.773
2022-10-21T00:30:00.363Z,0.702
2022-10-21T00:32:01.422Z,0
2022-10-21T00:34:02.358Z,0.702
2022-10-21T00:36:03.676Z,0.14
2022-10-21T00:40:06.512Z,0
2022-10-21T00:42:07.830Z,0.28
2022-10-21T00:44:08.993Z,0.702
2022-10-21T00:46:10.154Z,0.421
2022-10-21T00:48:11.845Z,0.982
2022-10-21T00:50:13.074Z,2.106
2022-10-21T00:52:14.478Z,1.263
2022-10-21T00:54:15.492Z,0.14
2022-10-21T00:56:16.928Z,0
2022-10-21T00:58:18.415Z,0
2022-10-21T01:00:19.497Z,2.386
2022-10-21T01:02:20.865Z,1.825
2022-10-21T01:04:22.684Z,0.421
2022-10-21T01:06:23.613Z,0
2022-10-21T01:08:24.966Z,1.123
2022-10-21T01:10:26.108Z,1.123
2022-10-21T01:12:27.234Z,0
2022-10-21T01:14:29.108Z,0
2022-10-21T01:16:30.696Z,3.088
2022-10-21T01:18:31.939Z,5.054
2022-10-21T01:20:33.468Z,3.51
2022-10-21T01:22:35.011Z,4.773
2022-10-21T01:24:35.985Z,4.773
2022-10-21T01:26:36.953Z,2.667
2022-10-21T01:28:38.000Z,3.088
2022-10-21T01:30:39.060Z,2.386
2022-10-21T01:32:40.202Z,1.965
2022-10-21T01:34:41.798Z,0.28
2022-10-21T01:36:43.455Z,2.667
2022-10-21T01:38:45.023Z,0.561
2022-10-21T01:40:46.294Z,0.702
2022-10-21T01:42:47.239Z,3.229
2022-10-21T01:44:48.510Z,1.544
2022-10-21T01:46:49.550Z,2.948
2022-10-21T01:48:50.574Z,1.123
2022-10-21T01:50:52.320Z,0
2022-10-21T01:52:54.247Z,0
2022-10-21T01:54:55.844Z,0
2022-10-21T01:56:57.484Z,0
2022-10-21T01:58:58.939Z,0
2022-10-21T02:00:59.991Z,0.842
2022-10-21T02:03:01.578Z,2.246
2022-10-21T02:05:03.295Z,0.14
2022-10-21T02:07:04.157Z,0.842
2022-10-21T02:09:05.527Z,0.14
2022-10-21T02:11:06.826Z,0.14
2022-10-21T02:13:08.351Z,0
2022-10-21T02:15:10.148Z,0
2022-10-21T02:17:11.458Z,1.544
2022-10-21T02:21:14.249Z,0.982
2022-10-21T02:23:15.275Z,0.982
2022-10-21T02:25:16.199Z,0
2022-10-21T02:27:17.599Z,0
2022-10-21T02:29:19.015Z,0
2022-10-21T02:33:22.633Z,0
2022-10-21T02:35:24.179Z,0
2022-10-21T02:37:25.458Z,0
2022-10-21T02:39:26.890Z,0
2022-10-21T02:41:27.919Z,0
2022-10-21T02:43:28.859Z,0
2022-10-21T02:45:30.631Z,0
2022-10-21T02:47:32.028Z,0
2022-10-21T02:49:33.034Z,0
2022-10-21T02:53:36.167Z,0
2022-10-21T02:55:37.415Z,0
2022-10-21T02:57:39.586Z,0
2022-10-21T02:59:40.608Z,0
2022-10-21T03:01:41.611Z,0
2022-10-21T03:03:43.240Z,0
2022-10-21T03:05:45.052Z,0
2022-10-21T03:07:46.718Z,0
2022-10-21T03:09:48.454Z,0
2022-10-21T03:11:49.729Z,0
2022-10-21T03:13:51.106Z,0
2022-10-21T03:15:52.106Z,0
2022-10-21T03:17:53.627Z,2.667
2022-10-21T03:19:54.831Z,1.263
2022-10-21T03:21:56.144Z,2.386
2022-10-21T03:23:57.757Z,2.246
2022-10-21T03:25:59.612Z,0
2022-10-21T03:28:00.632Z,0
2022-10-21T03:30:01.883Z,0.702
2022-10-21T03:32:03.514Z,0.14
2022-10-21T03:34:04.988Z,1.684
2022-10-21T03:36:06.685Z,0
2022-10-21T03:38:08.525Z,0.14
2022-10-21T03:40:12.241Z,0
2022-10-21T03:40:53.962Z,0
2022-10-21T03:42:55.684Z,0
2022-10-21T03:44:57.301Z,0.28
2022-10-21T03:46:58.350Z,0.421
2022-10-21T03:49:02.344Z,0
2022-10-21T03:51:00.948Z,0
2022-10-21T03:53:09.847Z,0.28
2022-10-21T03:55:04.248Z,0.421
2022-10-21T03:57:05.457Z,0
2022-10-21T03:59:07.240Z,0
2022-10-21T04:01:08.426Z,0
2022-10-21T04:03:10.093Z,0
2022-10-21T04:05:11.662Z,0
2022-10-21T04:07:12.837Z,0
2022-10-21T04:09:13.859Z,0.28
2022-10-21T04:11:15.696Z,0
2022-10-21T04:13:17.080Z,0
2022-10-21T04:15:18.430Z,0
2022-10-21T04:17:19.902Z,0
2022-10-21T04:19:21.608Z,0
2022-10-21T04:23:24.309Z,0
2022-10-21T04:25:25.361Z,0
2022-10-21T04:27:26.954Z,0
2022-10-21T04:29:28.730Z,0
2022-10-21T04:31:32.114Z,0
2022-10-21T04:33:31.229Z,0
2022-10-21T04:35:33.115Z,0
2022-10-21T04:39:36.192Z,0
2022-10-21T04:41:37.399Z,0
2022-10-21T04:43:39.006Z,0
2022-10-21T04:45:40.405Z,0
2022-10-21T04:47:41.768Z,0
2022-10-21T04:49:43.269Z,0
2022-10-21T04:51:44.876Z,0
2022-10-21T04:53:46.048Z,0
2022-10-21T04:55:47.317Z,0
2022-10-21T04:57:48.477Z,0
2022-10-21T04:59:49.479Z,0
2022-10-21T05:01:51.385Z,0
2022-10-21T05:03:52.454Z,0
2022-10-21T05:05:53.850Z,0
2022-10-21T05:07:54.826Z,0
2022-10-21T05:11:57.987Z,0
2022-10-21T05:13:58.998Z,0
2022-10-21T05:16:00.550Z,0
2022-10-21T05:18:01.716Z,0
2022-10-21T05:22:04.772Z,0
2022-10-21T05:24:06.604Z,0
2022-10-21T05:26:07.638Z,0
2022-10-21T05:28:08.585Z,0
2022-10-21T05:30:10.155Z,0
2022-10-21T05:32:11.359Z,0
2022-10-21T05:34:12.368Z,0
2022-10-21T05:36:13.251Z,0
2022-10-21T05:38:14.526Z,0
2022-10-21T05:40:16.110Z,0
2022-10-21T05:42:17.521Z,0
2022-10-21T05:44:19.168Z,0
2022-10-21T05:46:20.479Z,0
2022-10-21T05:48:22.154Z,0
2022-10-21T05:50:23.335Z,0
2022-10-21T05:52:24.974Z,0
2022-10-21T05:54:26.539Z,0
2022-10-21T05:56:27.683Z,0
2022-10-21T05:58:29.487Z,0
2022-10-21T06:00:30.454Z,0
2022-10-21T06:02:32.293Z,0.14
2022-10-21T06:04:36.376Z,0.14
2022-10-21T06:06:35.809Z,0
2022-10-21T06:08:37.324Z,0
2022-10-21T06:10:38.599Z,0.842
2022-10-21T06:12:39.994Z,0.28
2022-10-21T06:14:40.903Z,0
2022-10-21T06:16:42.407Z,0
2022-10-21T06:18:43.512Z,0
2022-10-21T06:20:44.544Z,0.14
2022-10-21T06:22:46.101Z,0
2022-10-21T06:24:47.998Z,0
2022-10-21T06:26:49.667Z,0
2022-10-21T06:28:51.460Z,0
2022-10-21T06:30:53.294Z,0
2022-10-21T06:32:54.564Z,0.14
2022-10-21T06:34:56.113Z,0
2022-10-21T06:36:57.033Z,0
2022-10-21T06:38:58.827Z,0
2022-10-21T06:40:59.815Z,0
2022-10-21T06:43:01.532Z,0
2022-10-21T06:45:02.614Z,0
2022-10-21T06:47:04.215Z,0
2022-10-21T06:49:06.317Z,0
2022-10-21T06:53:08.958Z,0
2022-10-21T06:55:10.490Z,0
2022-10-21T06:57:11.438Z,0
2022-10-21T06:59:12.923Z,0
2022-10-21T07:03:15.865Z,2.106
2022-10-21T07:05:16.857Z,0
2022-10-21T07:07:18.110Z,0.982
2022-10-21T07:09:19.990Z,0
2022-10-21T07:11:21.827Z,0
2022-10-21T07:13:25.830Z,0
2022-10-21T07:15:24.718Z,0
2022-10-21T07:17:26.127Z,0
2022-10-21T07:19:27.912Z,0
2022-10-21T07:21:28.954Z,0
2022-10-21T07:23:29.912Z,0
2022-10-21T07:25:31.057Z,0
2022-10-21T07:27:32.198Z,0
2022-10-21T07:29:33.390Z,0
2022-10-21T07:31:35.059Z,0
2022-10-21T07:35:37.585Z,0
2022-10-21T07:37:38.671Z,3.51
2022-10-21T07:43:42.369Z,0.28
2022-10-21T07:45:43.381Z,0.421
2022-10-21T07:47:44.678Z,0
2022-10-21T07:49:45.932Z,0.28
2022-10-21T07:51:47.609Z,0
2022-10-21T07:53:48.577Z,0
2022-10-21T07:55:50.032Z,0
2022-10-21T07:57:51.579Z,0
2022-10-21T07:59:52.456Z,0
2022-10-21T08:03:54.837Z,2.246
2022-10-21T08:05:56.088Z,2.667
2022-10-21T08:07:57.260Z,3.931
2022-10-21T08:09:59.076Z,0.702
2022-10-21T08:14:01.278Z,0
2022-10-21T08:16:02.663Z,0
2022-10-21T08:18:04.365Z,0
2022-10-21T08:20:05.426Z,0
2022-10-21T08:22:06.865Z,3.088
2022-10-21T08:24:08.685Z,0
2022-10-21T08:26:09.860Z,0
2022-10-21T08:28:11.370Z,0
2022-10-21T08:32:14.425Z,0.702
2022-10-21T08:34:15.756Z,0.561
2022-10-21T08:36:17.231Z,0
2022-10-21T08:38:18.229Z,0
2022-10-21T08:40:20.086Z,0.421
2022-10-21T08:42:21.412Z,0.14
2022-10-21T08:44:22.978Z,1.965
2022-10-21T08:46:23.988Z,0.702
2022-10-21T08:48:24.867Z,1.123
2022-10-21T08:50:26.516Z,0.561
2022-10-21T08:52:27.863Z,0
2022-10-21T08:54:29.158Z,1.123
2022-10-21T08:56:30.914Z,0
2022-10-21T08:58:32.433Z,0
2022-10-21T09:00:33.845Z,0
2022-10-21T09:02:35.548Z,1.263
2022-10-21T09:04:36.692Z,0
2022-10-21T09:06:37.814Z,0
2022-10-21T09:08:39.251Z,1.684
2022-10-21T09:10:40.299Z,3.369
2022-10-21T09:12:41.505Z,2.667
2022-10-21T09:14:43.465Z,1.684
2022-10-21T09:16:45.250Z,0.421
2022-10-21T09:18:46.599Z,0.14
2022-10-21T09:20:50.136Z,0.28
2022-10-21T09:22:49.447Z,0.14
2022-10-21T09:24:51.246Z,0
2022-10-21T09:26:52.258Z,1.965
2022-10-21T09:28:53.911Z,2.246
2022-10-21T09:30:55.176Z,2.808
2022-10-21T09:32:56.703Z,0
2022-10-21T09:34:58.445Z,0
2022-10-21T09:37:00.081Z,0
2022-10-21T09:39:01.927Z,0
2022-10-21T09:41:02.837Z,0
2022-10-21T09:43:04.604Z,0
2022-10-21T09:45:06.017Z,0
2022-10-21T09:47:07.091Z,0
2022-10-21T09:49:36.624Z,2.667
2022-10-21T09:51:09.363Z,3.229
2022-10-21T09:53:10.751Z,1.263
2022-10-21T09:55:12.328Z,0.14
2022-10-21T09:57:13.503Z,0.842
2022-10-21T09:59:14.441Z,4.212
2022-10-21T10:01:15.367Z,3.229
2022-10-21T10:03:16.609Z,0.842
2022-10-21T10:05:17.508Z,0.14
2022-10-21T10:07:18.611Z,0.28
2022-10-21T10:09:20.187Z,0.14
2022-10-21T10:11:21.757Z,0.28
2022-10-21T10:13:23.441Z,4.633
2022-10-21T10:15:26.860Z,3.088
2022-10-21T10:17:26.693Z,0
2022-10-21T10:19:27.635Z,1.404
2022-10-21T10:23:30.021Z,0.14
2022-10-21T10:26:33.028Z,1.965
2022-10-21T10:28:34.721Z,5.335
2022-10-21T10:30:36.008Z,3.088
2022-10-21T10:32:37.290Z,1.684
2022-10-21T10:34:38.225Z,1.263
2022-10-21T10:36:39.623Z,0.561
2022-10-21T10:38:40.798Z,4.352
2022-10-21T10:40:41.794Z,0.982
2022-10-21T10:42:43.502Z,2.808
2022-10-21T10:44:44.672Z,2.386
2022-10-21T10:48:47.495Z,4.773
2022-10-21T10:50:48.456Z,0.28
2022-10-21T10:52:49.845Z,3.51
2022-10-21T10:54:50.779Z,2.527
2022-10-21T10:56:52.409Z,4.914
2022-10-21T10:58:53.906Z,2.527
2022-10-21T11:00:55.727Z,3.65
2022-10-21T11:02:57.498Z,2.386
2022-10-21T11:04:58.639Z,3.65
2022-10-21T11:07:00.455Z,2.246
2022-10-21T11:09:02.077Z,5.054
2022-10-21T11:11:03.383Z,5.194
2022-10-21T11:13:05.079Z,2.527
2022-10-21T11:15:06.391Z,3.79
2022-10-21T11:17:08.013Z,0.28
2022-10-21T11:19:09.532Z,0.842
2022-10-21T11:21:10.751Z,3.79
2022-10-21T11:23:12.504Z,2.667
2022-10-21T11:25:14.219Z,2.808
2022-10-21T11:27:18.084Z,3.65
2022-10-21T11:29:17.067Z,2.808
2022-10-21T11:31:17.938Z,8.424
2022-10-21T11:33:19.084Z,2.246
2022-10-21T11:35:20.821Z,2.527
2022-10-21T11:37:22.469Z,1.544
2022-10-21T11:39:23.973Z,5.475
2022-10-21T11:41:25.759Z,4.633
2022-10-21T11:43:26.192Z,2.667
2022-10-21T11:45:27.166Z,6.177
2022-10-21T11:49:31.271Z,1.263
2022-10-21T11:51:31.288Z,5.054
2022-10-21T11:53:32.710Z,5.335
2022-10-21T11:55:34.529Z,3.369
2022-10-21T11:57:35.658Z,8.704
2022-10-21T11:59:37.238Z,6.458
2022-10-21T12:01:38.161Z,4.914
2022-10-21T12:03:39.686Z,6.177
2022-10-21T12:05:40.973Z,0.842
2022-10-21T12:07:42.091Z,0.982
2022-10-21T12:09:43.688Z,2.106
2022-10-21T12:11:44.914Z,3.229
2022-10-21T12:13:46.506Z,0.842
2022-10-21T12:15:48.125Z,2.386
2022-10-21T12:17:49.346Z,2.948
2022-10-21T12:19:50.337Z,4.914
2022-10-21T12:21:51.265Z,2.808
2022-10-21T12:23:52.592Z,5.194
2022-10-21T12:25:54.207Z,3.088
2022-10-21T12:27:55.299Z,1.123
2022-10-21T12:29:56.849Z,3.79
2022-10-21T12:31:58.567Z,3.229
2022-10-21T12:33:59.777Z,7.02
2022-10-21T12:36:01.039Z,2.948
2022-10-21T12:40:03.566Z,2.808
2022-10-21T12:42:04.811Z,5.756
2022-10-21T12:44:05.867Z,4.633
2022-10-21T12:46:06.883Z,5.054
2022-10-21T12:48:08.348Z,2.667
2022-10-21T12:50:09.734Z,4.352
2022-10-21T12:52:11.206Z,8.424
2022-10-21T12:54:12.992Z,7.722
2022-10-21T12:56:14.680Z,5.054
2022-10-21T12:58:16.192Z,7.862
2022-10-21T13:00:18.094Z,4.492
2022-10-21T13:02:19.665Z,6.458
2022-10-21T13:04:21.430Z,2.106
2022-10-21T13:06:23.153Z,5.475
2022-10-21T13:08:24.716Z,2.246
2022-10-21T13:12:28.125Z,1.123
2022-10-21T13:14:32.238Z,3.51
2022-10-21T13:16:30.799Z,4.492
2022-10-21T13:22:35.251Z,6.598
2022-10-21T13:24:36.890Z,8.283
2022-10-21T13:26:38.058Z,5.616
2022-10-21T13:28:39.224Z,5.054
2022-10-21T13:30:40.382Z,2.106
2022-10-21T13:32:41.694Z,4.633
2022-10-21T13:34:43.141Z,6.177
2022-10-21T13:36:44.642Z,7.02
2022-10-21T13:38:46.378Z,0.28
2022-10-21T13:40:48.087Z,2.527
2022-10-21T13:42:48.937Z,1.825
2022-10-21T13:44:49.764Z,3.369
2022-10-21T13:46:51.312Z,4.071
2022-10-21T13:48:52.523Z,0.561
2022-10-21T13:50:53.646Z,3.65
2022-10-21T13:52:55.413Z,3.369
2022-10-21T13:54:56.701Z,2.106
2022-10-21T13:56:58.387Z,1.263
2022-10-21T13:58:59.221Z,2.948
2022-10-21T14:01:00.437Z,1.404
2022-10-21T14:03:01.782Z,2.106
2022-10-21T14:05:02.628Z,0.28
2022-10-21T14:07:03.550Z,3.229
2022-10-21T14:09:04.576Z,3.369
2022-10-21T14:11:06.049Z,1.404
2022-10-21T14:13:07.469Z,5.194
2022-10-21T14:15:09.157Z,1.404
2022-10-21T14:17:10.801Z,3.79
2022-10-21T14:19:11.626Z,1.965
2022-10-21T14:21:12.568Z,5.896
2022-10-21T14:23:14.079Z,6.177
2022-10-21T14:25:15.225Z,2.246
2022-10-21T14:27:16.390Z,3.369
2022-10-21T14:29:17.630Z,1.123
2022-10-21T14:31:18.983Z,6.598
2022-10-21T14:33:19.968Z,3.229
2022-10-21T14:35:21.000Z,0
2022-10-21T14:37:22.801Z,2.667
2022-10-21T14:39:24.613Z,4.212
2022-10-21T14:41:25.822Z,2.527
2022-10-21T14:43:26.906Z,3.369
2022-10-21T14:45:27.805Z,2.667
2022-10-21T14:47:28.747Z,2.808
2022-10-21T14:49:29.980Z,3.65
2022-10-21T14:53:32.617Z,0.421
2022-10-21T14:55:34.273Z,0
2022-10-21T14:57:35.706Z,0.561
2022-10-21T14:59:36.818Z,0
2022-10-21T15:03:39.395Z,1.123
2022-10-21T15:05:44.096Z,1.684
2022-10-21T15:07:42.811Z,1.965
2022-10-21T15:09:43.707Z,2.246
2022-10-21T15:11:45.444Z,2.106
2022-10-21T15:13:47.058Z,2.527
2022-10-21T15:15:53.496Z,0.14
2022-10-21T15:17:49.519Z,0
2022-10-21T15:19:50.847Z,0
2022-10-21T15:21:52.073Z,0
2022-10-21T15:25:54.973Z,1.544
2022-10-21T15:27:55.875Z,0.14
2022-10-21T15:29:57.557Z,2.808
2022-10-21T15:31:59.040Z,0.28
2022-10-21T15:36:01.708Z,0
2022-10-21T15:38:03.096Z,0
2022-10-21T15:40:04.075Z,0
2022-10-21T15:42:05.140Z,0
2022-10-21T15:44:06.195Z,0
2022-10-21T15:46:07.753Z,0
2022-10-21T15:48:09.309Z,0
2022-10-21T15:50:10.667Z,1.825
2022-10-21T15:52:12.102Z,1.544
2022-10-21T15:54:13.152Z,0
2022-10-21T15:56:14.577Z,0
2022-10-21T15:58:16.195Z,1.684
2022-10-21T16:00:17.698Z,0.702
2022-10-21T16:02:18.747Z,3.931
2022-10-21T16:04:19.777Z,1.263
2022-10-21T16:06:21.631Z,0.842
2022-10-21T16:08:31.144Z,0
2022-10-21T16:10:24.189Z,0
2022-10-21T16:12:25.570Z,2.386
2022-10-21T16:14:29.351Z,1.123
2022-10-21T16:16:28.904Z,2.808
2022-10-21T16:18:29.794Z,3.369
2022-10-21T16:20:31.372Z,0.28
2022-10-21T16:22:33.099Z,0.421
2022-10-21T16:24:34.192Z,0
2022-10-21T16:26:35.824Z,0.561
2022-10-21T16:28:37.438Z,0
2022-10-21T16:30:38.341Z,0.982
2022-10-21T16:32:39.459Z,0.421
2022-10-21T16:34:40.647Z,0.561
2022-10-21T16:36:41.985Z,0
2022-10-21T16:38:43.450Z,1.263
2022-10-21T16:40:45.108Z,1.263
2022-10-21T16:44:47.951Z,0
2022-10-21T16:46:49.623Z,1.825
2022-10-21T16:48:51.359Z,0
2022-10-21T16:50:53.150Z,0
2022-10-21T16:52:54.540Z,0.14
2022-10-21T16:54:56.210Z,0
2022-10-21T16:56:57.491Z,0.702
2022-10-21T16:58:59.255Z,0
2022-10-21T17:01:00.553Z,0
2022-10-21T17:03:01.594Z,0
2022-10-21T17:05:03.109Z,0
2022-10-21T17:07:04.675Z,0
2022-10-21T17:09:06.285Z,0
2022-10-21T17:11:07.087Z,0.14
2022-10-21T17:11:50.855Z,0
2022-10-21T17:13:52.502Z,2.386
2022-10-21T17:15:53.754Z,0
2022-10-21T17:17:54.872Z,0
2022-10-21T17:21:57.273Z,2.106
2022-10-21T17:23:58.642Z,0
2022-10-21T17:25:59.626Z,0
2022-10-21T17:28:01.451Z,0
2022-10-21T17:30:03.084Z,0.982
2022-10-21T17:34:06.251Z,0
2022-10-21T17:36:07.272Z,0
2022-10-21T17:38:08.221Z,0.14
2022-10-21T17:40:09.784Z,0
2022-10-21T17:44:12.499Z,0.14
2022-10-21T17:46:13.867Z,0.842
2022-10-21T17:50:16.041Z,0.14
2022-10-21T17:54:21.383Z,0
2022-10-21T17:56:20.970Z,0.421
2022-10-21T17:58:22.330Z,0
2022-10-21T18:00:23.142Z,0
2022-10-21T18:04:25.724Z,0
2022-10-21T18:06:27.507Z,0
2022-10-21T18:08:29.402Z,0
2022-10-21T18:10:30.247Z,0
2022-10-21T18:12:31.494Z,0
2022-10-21T18:14:32.568Z,0
2022-10-21T18:16:33.894Z,0.28
2022-10-21T18:18:35.243Z,0
2022-10-21T18:20:36.570Z,0
2022-10-21T18:22:38.572Z,0.561
2022-10-21T18:24:39.540Z,0.14
2022-10-21T18:26:40.528Z,0
2022-10-21T18:28:41.549Z,0
2022-10-21T18:30:42.768Z,0
2022-10-21T18:32:44.267Z,2.527
2022-10-21T18:34:45.224Z,0.702
2022-10-21T18:36:46.707Z,1.825
2022-10-21T18:38:47.851Z,1.123
2022-10-21T18:40:56.209Z,0
2022-10-21T18:42:50.700Z,3.369
2022-10-21T18:44:52.574Z,0.14
2022-10-21T18:46:55.295Z,0.421
2022-10-21T18:48:55.347Z,1.263
2022-10-21T18:52:57.546Z,2.808
2022-10-21T18:54:59.415Z,0
2022-10-21T18:57:00.489Z,0.14
2022-10-21T18:59:02.050Z,0.28
2022-10-21T19:03:05.397Z,0
2022-10-21T19:05:06.489Z,0
2022-10-21T19:07:08.213Z,0
2022-10-21T19:09:09.962Z,0
2022-10-21T19:11:11.558Z,0
2022-10-21T19:13:12.593Z,0
2022-10-21T19:15:13.695Z,0
2022-10-21T19:17:14.643Z,0
2022-10-21T19:19:15.624Z,0
2022-10-21T19:21:16.980Z,0
2022-10-21T19:23:18.254Z,0
2022-10-21T19:25:19.352Z,0
2022-10-21T19:27:21.028Z,0
2022-10-21T19:29:22.446Z,0
2022-10-21T19:31:23.421Z,0
2022-10-21T19:35:25.533Z,0
2022-10-21T19:37:26.749Z,0
2022-10-21T19:39:28.534Z,0
2022-10-21T19:41:30.380Z,0
2022-10-21T19:43:31.830Z,0
2022-10-21T19:45:33.203Z,0
2022-10-21T19:47:34.512Z,0
2022-10-21T19:49:35.574Z,0
2022-10-21T19:51:37.150Z,0
2022-10-21T19:53:38.917Z,0
2022-10-21T19:55:40.185Z,3.79
2022-10-21T19:57:41.859Z,0.14
2022-10-21T19:59:43.445Z,0.421
2022-10-21T20:01:45.107Z,0
2022-10-21T20:03:46.383Z,0
2022-10-21T20:05:47.194Z,1.544
2022-10-21T20:07:48.671Z,0.14
2022-10-21T20:09:49.846Z,0
2022-10-21T20:11:50.992Z,0
2022-10-21T20:13:51.955Z,0
2022-10-21T20:15:52.937Z,0
2022-10-21T20:17:54.088Z,0
2022-10-21T20:19:55.430Z,0.842
2022-10-21T20:21:57.128Z,0
2022-10-21T20:23:58.116Z,0
2022-10-21T20:25:59.917Z,0
2022-10-21T20:28:00.866Z,0
2022-10-21T20:30:02.396Z,0
2022-10-21T20:32:04.127Z,0
2022-10-21T20:34:05.207Z,0
2022-10-21T20:36:06.396Z,0
2022-10-21T20:38:08.096Z,0
2022-10-21T20:40:09.748Z,0
2022-10-21T20:42:10.818Z,0
2022-10-21T20:44:11.799Z,0
2022-10-21T20:46:13.048Z,0
2022-10-21T20:48:14.020Z,0
2022-10-21T20:50:15.899Z,0
2022-10-21T20:52:17.597Z,0
2022-10-21T20:54:19.028Z,0
2022-10-21T20:56:20.105Z,0
2022-10-21T20:58:21.631Z,0
2022-10-21T21:00:23.015Z,0
2022-10-21T21:02:24.632Z,0.982
2022-10-21T21:04:25.808Z,0
2022-10-21T21:06:27.607Z,0
2022-10-21T21:08:29.130Z,0
2022-10-21T21:10:30.734Z,0
2022-10-21T21:12:31.646Z,0
2022-10-21T21:16:34.660Z,0
2022-10-21T21:18:36.146Z,0
2022-10-21T21:20:37.710Z,0
2022-10-21T21:22:39.685Z,0
2022-10-21T21:24:40.714Z,0
2022-10-21T21:26:42.264Z,0
2022-10-21T21:28:43.601Z,0
2022-10-21T21:30:44.929Z,0
2022-10-21T21:32:46.324Z,0
2022-10-21T21:34:47.671Z,0
2022-10-21T21:36:48.829Z,0
2022-10-21T21:38:49.797Z,0
2022-10-21T21:40:51.369Z,0
2022-10-21T21:42:53.027Z,0
2022-10-21T21:44:54.077Z,0
2022-10-21T21:46:55.457Z,0
2022-10-21T21:48:59.434Z,0
2022-10-21T21:50:57.493Z,0
2022-10-21T21:52:58.732Z,0
2022-10-21T21:55:00.414Z,0
2022-10-21T21:57:27.572Z,0
2022-10-21T21:59:03.878Z,0
2022-10-21T22:01:05.183Z,0
2022-10-21T22:03:06.154Z,0.702
2022-10-21T22:05:07.384Z,0
2022-10-21T22:07:08.763Z,0
2022-10-21T22:09:10.335Z,0
2022-10-21T22:11:11.728Z,0
2022-10-21T22:13:13.134Z,0
2022-10-21T22:15:29.591Z,0
2022-10-21T22:17:16.333Z,0
2022-10-21T22:19:17.771Z,0
2022-10-21T22:21:19.011Z,0.14
2022-10-21T22:23:20.867Z,0.28
2022-10-21T22:25:22.475Z,0
2022-10-21T22:27:24.100Z,0
2022-10-21T22:29:26.013Z,0
2022-10-21T22:31:28.891Z,0
2022-10-21T22:33:28.548Z,0
2022-10-21T22:35:29.897Z,0
2022-10-21T22:37:30.782Z,0
2022-10-21T22:39:31.952Z,0
2022-10-21T22:41:33.206Z,1.123
2022-10-21T22:43:34.317Z,0.28
2022-10-21T22:45:35.362Z,0
2022-10-21T22:47:36.986Z,0.982
2022-10-21T22:49:38.690Z,0
2022-10-21T22:51:40.041Z,0
2022-10-21T22:53:41.645Z,0
2022-10-21T22:57:44.307Z,0
2022-10-21T22:59:49.459Z,0
2022-10-21T23:01:47.506Z,0
2022-10-21T23:03:48.463Z,0
2022-10-21T23:07:50.782Z,0
2022-10-21T23:09:51.817Z,0
2022-10-21T23:11:53.375Z,0
2022-10-21T23:14:01.959Z,0
2022-10-21T23:15:55.726Z,0
2022-10-21T23:17:56.889Z,0
2022-10-21T23:19:58.513Z,0
2022-10-21T23:22:00.248Z,0
2022-10-21T23:24:01.132Z,0
2022-10-21T23:26:02.411Z,0
2022-10-21T23:28:03.495Z,0
2022-10-21T23:30:04.773Z,0
2022-10-21T23:32:06.303Z,0
2022-10-21T23:34:08.095Z,0
2022-10-21T23:36:09.814Z,0
2022-10-21T23:40:12.246Z,0
2022-10-21T23:42:13.348Z,0
2022-10-21T23:44:14.286Z,0.702
2022-10-21T23:46:15.393Z,0
2022-10-21T23:50:18.134Z,0
2022-10-21T23:52:19.925Z,0.28
2022-10-21T23:54:21.577Z,0.14
2022-10-21T23:56:22.988Z,0
2022-10-21T23:57:06.784Z,0
2022-10-21T23:59:07.731Z,0
